createdAt,value
2023-03-26T00:00:49.886Z,0.00
2023-03-26T00:01:50.082Z,0.00
2023-03-26T00:02:49.953Z,0.00
2023-03-26T00:03:49.868Z,0.00
2023-03-26T00:04:49.844Z,0.00
2023-03-26T00:05:49.920Z,0.00
2023-03-26T00:06:49.843Z,0.00
2023-03-26T00:07:49.829Z,0.00
2023-03-26T00:08:49.854Z,0.00
2023-03-26T00:09:49.796Z,0.00
2023-03-26T00:10:49.782Z,0.00
2023-03-26T00:11:49.806Z,0.00
2023-03-26T00:12:49.771Z,0.00
2023-03-26T00:13:49.762Z,0.00
2023-03-26T00:14:49.766Z,0.00
2023-03-26T00:15:49.776Z,0.00
2023-03-26T00:16:49.843Z,0.00
2023-03-26T00:17:50.496Z,0.00
2023-03-26T00:18:49.759Z,0.00
2023-03-26T00:19:49.700Z,0.00
2023-03-26T00:20:49.730Z,0.00
2023-03-26T00:21:49.722Z,0.00
2023-03-26T00:22:49.655Z,0.00
2023-03-26T00:23:49.654Z,0.00
2023-03-26T00:24:49.661Z,0.00
2023-03-26T00:25:49.637Z,0.00
2023-03-26T00:26:49.646Z,0.00
2023-03-26T00:27:49.676Z,0.00
2023-03-26T00:28:49.600Z,0.00
2023-03-26T00:29:49.626Z,0.00
2023-03-26T00:30:49.618Z,0.00
2023-03-26T00:31:49.632Z,0.00
2023-03-26T00:32:53.578Z,0.00
2023-03-26T00:33:49.553Z,0.00
2023-03-26T00:34:49.537Z,0.00
2023-03-26T00:35:49.581Z,0.00
2023-03-26T00:36:49.543Z,0.00
2023-03-26T00:37:49.509Z,0.00
2023-03-26T00:38:49.510Z,0.00
2023-03-26T00:39:49.489Z,0.00
2023-03-26T00:40:49.498Z,0.00
2023-03-26T00:41:49.524Z,0.00
2023-03-26T00:42:49.478Z,0.00
2023-03-26T00:43:49.514Z,0.00
2023-03-26T00:44:49.441Z,0.00
2023-03-26T00:45:49.463Z,0.00
2023-03-26T00:46:49.442Z,0.00
2023-03-26T00:47:49.483Z,0.00
2023-03-26T00:48:49.418Z,0.00
2023-03-26T00:49:49.388Z,0.00
2023-03-26T00:50:49.402Z,0.00
2023-03-26T00:51:49.387Z,0.00
2023-03-26T00:52:49.356Z,0.00
2023-03-26T00:53:49.389Z,0.00
2023-03-26T00:54:49.337Z,0.00
2023-03-26T00:55:49.355Z,0.00
2023-03-26T00:56:49.389Z,0.00
2023-03-26T00:57:49.296Z,0.00
2023-03-26T00:58:49.285Z,0.00
2023-03-26T00:59:49.344Z,0.00
2023-03-26T01:00:49.267Z,0.00
2023-03-26T01:01:49.305Z,0.00
2023-03-26T01:02:49.360Z,0.00
2023-03-26T01:04:01.251Z,0.00
2023-03-26T01:04:49.244Z,0.00
2023-03-26T01:05:49.245Z,0.00
2023-03-26T01:06:49.246Z,0.00
2023-03-26T01:07:49.193Z,0.00
2023-03-26T01:08:49.195Z,0.00
2023-03-26T01:09:49.167Z,0.00
2023-03-26T01:10:49.171Z,0.00
2023-03-26T01:11:49.188Z,0.00
2023-03-26T01:12:49.134Z,0.00
2023-03-26T01:13:49.120Z,0.00
2023-03-26T01:14:51.042Z,0.00
2023-03-26T01:15:49.149Z,0.00
2023-03-26T01:16:49.124Z,0.00
2023-03-26T01:17:49.199Z,0.00
2023-03-26T01:18:49.071Z,0.00
2023-03-26T01:19:49.062Z,0.00
2023-03-26T01:20:49.075Z,0.00
2023-03-26T01:21:49.072Z,0.00
2023-03-26T01:22:49.035Z,0.00
2023-03-26T01:23:49.105Z,0.00
2023-03-26T01:24:49.033Z,0.00
2023-03-26T01:25:49.002Z,0.00
2023-03-26T01:26:49.004Z,0.00
2023-03-26T01:27:49.058Z,0.00
2023-03-26T01:28:48.971Z,0.00
2023-03-26T01:29:48.992Z,0.00
2023-03-26T01:30:48.954Z,0.00
2023-03-26T01:31:48.943Z,0.00
2023-03-26T01:32:49.023Z,0.00
2023-03-26T01:33:48.967Z,0.00
2023-03-26T01:34:48.910Z,0.00
2023-03-26T01:35:49.061Z,0.00
2023-03-26T01:36:48.918Z,0.00
2023-03-26T01:37:48.870Z,0.00
2023-03-26T01:38:48.887Z,0.00
2023-03-26T01:39:48.870Z,0.00
2023-03-26T01:40:48.837Z,0.00
2023-03-26T01:41:48.870Z,0.00
2023-03-26T01:42:48.844Z,0.00
2023-03-26T01:43:48.825Z,0.00
2023-03-26T01:44:48.849Z,0.00
2023-03-26T01:45:48.814Z,0.00
2023-03-26T01:46:48.853Z,0.00
2023-03-26T01:47:48.858Z,0.00
2023-03-26T01:48:48.764Z,0.00
2023-03-26T01:49:48.764Z,0.00
2023-03-26T01:50:48.768Z,0.00
2023-03-26T01:51:48.754Z,0.00
2023-03-26T01:52:48.732Z,0.00
2023-03-26T01:53:48.717Z,0.00
2023-03-26T01:54:48.685Z,0.00
2023-03-26T01:55:48.710Z,0.00
2023-03-26T01:56:48.748Z,0.00
2023-03-26T01:57:48.690Z,0.00
2023-03-26T01:58:48.643Z,0.00
2023-03-26T01:59:48.644Z,0.00
2023-03-26T02:00:48.625Z,0.00
2023-03-26T02:01:48.743Z,0.00
2023-03-26T02:02:48.740Z,0.00
2023-03-26T02:03:48.656Z,0.00
2023-03-26T02:04:48.589Z,0.00
2023-03-26T02:05:48.610Z,0.00
2023-03-26T02:06:48.570Z,0.00
2023-03-26T02:07:48.562Z,0.00
2023-03-26T02:08:48.578Z,0.00
2023-03-26T02:09:48.568Z,0.00
2023-03-26T02:10:48.559Z,0.00
2023-03-26T02:11:48.573Z,0.00
2023-03-26T02:12:48.497Z,0.00
2023-03-26T02:13:48.496Z,0.00
2023-03-26T02:14:48.500Z,0.00
2023-03-26T02:15:48.518Z,0.00
2023-03-26T02:16:48.473Z,0.00
2023-03-26T02:17:48.491Z,0.00
2023-03-26T02:18:48.440Z,0.00
2023-03-26T02:19:48.426Z,0.00
2023-03-26T02:20:48.446Z,0.00
2023-03-26T02:21:48.393Z,0.00
2023-03-26T02:22:48.415Z,0.00
2023-03-26T02:23:48.409Z,0.00
2023-03-26T02:24:48.383Z,0.00
2023-03-26T02:25:48.365Z,0.00
2023-03-26T02:26:48.367Z,0.00
2023-03-26T02:27:48.352Z,0.00
2023-03-26T02:28:48.337Z,0.00
2023-03-26T02:29:48.324Z,0.00
2023-03-26T02:30:48.316Z,0.00
2023-03-26T02:31:48.395Z,0.00
2023-03-26T02:32:48.378Z,0.00
2023-03-26T02:33:48.314Z,0.00
2023-03-26T02:34:48.277Z,0.00
2023-03-26T02:35:48.368Z,0.00
2023-03-26T02:36:48.307Z,0.00
2023-03-26T02:37:48.264Z,0.00
2023-03-26T02:38:48.322Z,0.00
2023-03-26T02:39:48.213Z,0.00
2023-03-26T02:40:48.198Z,0.00
2023-03-26T02:41:48.226Z,0.00
2023-03-26T02:42:48.222Z,0.00
2023-03-26T02:43:48.175Z,0.00
2023-03-26T02:44:48.200Z,0.00
2023-03-26T02:45:48.211Z,0.00
2023-03-26T02:46:48.153Z,0.00
2023-03-26T02:47:48.190Z,0.00
2023-03-26T02:48:48.121Z,0.00
2023-03-26T02:49:48.175Z,0.00
2023-03-26T02:50:48.131Z,0.00
2023-03-26T02:51:48.121Z,0.00
2023-03-26T02:52:48.128Z,0.00
2023-03-26T02:53:48.109Z,0.00
2023-03-26T02:54:48.065Z,0.00
2023-03-26T02:55:48.056Z,0.00
2023-03-26T02:56:48.094Z,0.00
2023-03-26T02:57:48.062Z,0.00
2023-03-26T02:58:48.006Z,0.00
2023-03-26T02:59:48.016Z,0.00
2023-03-26T03:00:48.021Z,0.00
2023-03-26T03:01:47.996Z,0.00
2023-03-26T03:02:48.498Z,0.00
2023-03-26T03:03:47.961Z,0.00
2023-03-26T03:04:47.940Z,0.00
2023-03-26T03:05:47.958Z,0.00
2023-03-26T03:06:47.945Z,0.00
2023-03-26T03:07:47.937Z,0.00
2023-03-26T03:08:47.912Z,0.00
2023-03-26T03:09:47.895Z,0.00
2023-03-26T03:10:47.887Z,0.00
2023-03-26T03:11:47.888Z,0.00
2023-03-26T03:12:47.892Z,0.00
2023-03-26T03:13:47.905Z,0.00
2023-03-26T03:14:47.882Z,0.00
2023-03-26T03:15:47.820Z,0.00
2023-03-26T03:16:47.848Z,0.00
2023-03-26T03:17:47.844Z,0.00
2023-03-26T03:18:47.812Z,0.00
2023-03-26T03:19:47.817Z,0.00
2023-03-26T03:20:47.823Z,0.00
2023-03-26T03:21:47.756Z,0.00
2023-03-26T03:22:47.764Z,0.00
2023-03-26T03:23:47.762Z,0.00
2023-03-26T03:24:47.761Z,0.00
2023-03-26T03:25:47.719Z,0.00
2023-03-26T03:26:47.871Z,0.00
2023-03-26T03:27:47.715Z,0.00
2023-03-26T03:28:47.699Z,0.00
2023-03-26T03:29:47.753Z,0.00
2023-03-26T03:30:47.750Z,0.00
2023-03-26T03:31:47.665Z,0.00
2023-03-26T03:32:47.830Z,0.00
2023-03-26T03:33:47.638Z,0.00
2023-03-26T03:34:47.661Z,0.00
2023-03-26T03:35:47.689Z,0.00
2023-03-26T03:36:47.624Z,0.00
2023-03-26T03:37:47.620Z,0.00
2023-03-26T03:38:47.625Z,0.00
2023-03-26T03:39:47.603Z,0.00
2023-03-26T03:40:47.572Z,0.00
2023-03-26T03:41:47.582Z,0.00
2023-03-26T03:42:47.594Z,0.00
2023-03-26T03:43:47.552Z,0.00
2023-03-26T03:44:47.608Z,0.00
2023-03-26T03:45:47.560Z,0.00
2023-03-26T03:46:47.511Z,0.00
2023-03-26T03:47:47.582Z,0.00
2023-03-26T03:48:47.543Z,0.00
2023-03-26T03:49:47.485Z,0.00
2023-03-26T03:50:47.487Z,0.00
2023-03-26T03:51:47.447Z,0.00
2023-03-26T03:52:47.457Z,0.00
2023-03-26T03:53:47.553Z,0.00
2023-03-26T03:54:47.442Z,0.00
2023-03-26T03:55:47.410Z,0.00
2023-03-26T03:56:47.466Z,0.00
2023-03-26T03:57:47.395Z,0.00
2023-03-26T03:58:47.469Z,0.00
2023-03-26T03:59:48.232Z,0.00
2023-03-26T04:00:47.372Z,0.00
2023-03-26T04:01:47.346Z,0.00
2023-03-26T04:02:47.416Z,0.00
2023-03-26T04:03:47.506Z,0.00
2023-03-26T04:04:47.320Z,0.00
2023-03-26T04:05:47.352Z,0.00
2023-03-26T04:06:47.305Z,0.00
2023-03-26T04:07:47.274Z,0.00
2023-03-26T04:08:47.341Z,0.00
2023-03-26T04:09:47.276Z,0.00
2023-03-26T04:10:47.258Z,0.00
2023-03-26T04:11:47.258Z,0.00
2023-03-26T04:12:47.266Z,0.00
2023-03-26T04:13:47.260Z,0.00
2023-03-26T04:14:47.236Z,0.00
2023-03-26T04:15:47.258Z,0.00
2023-03-26T04:16:47.203Z,0.00
2023-03-26T04:17:47.292Z,0.00
2023-03-26T04:18:47.172Z,0.00
2023-03-26T04:19:47.177Z,0.00
2023-03-26T04:20:47.233Z,0.00
2023-03-26T04:21:47.172Z,0.00
2023-03-26T04:22:47.152Z,0.00
2023-03-26T04:23:47.156Z,0.00
2023-03-26T04:24:47.133Z,0.00
2023-03-26T04:25:47.103Z,0.00
2023-03-26T04:26:47.106Z,0.00
2023-03-26T04:27:47.067Z,0.00
2023-03-26T04:28:47.085Z,0.00
2023-03-26T04:29:47.082Z,0.00
2023-03-26T04:30:47.054Z,0.00
2023-03-26T04:31:47.296Z,0.00
2023-03-26T04:32:47.097Z,0.00
2023-03-26T04:33:47.052Z,0.00
2023-03-26T04:34:47.005Z,0.00
2023-03-26T04:35:47.075Z,0.00
2023-03-26T04:36:46.992Z,0.00
2023-03-26T04:37:46.988Z,0.00
2023-03-26T04:38:46.920Z,1.00
2023-03-26T04:39:46.937Z,1.00
2023-03-26T04:40:46.879Z,1.00
2023-03-26T04:41:46.934Z,1.00
2023-03-26T04:42:46.886Z,1.00
2023-03-26T04:43:46.881Z,1.00
2023-03-26T04:44:46.879Z,2.00
2023-03-26T04:45:46.864Z,2.00
2023-03-26T04:46:46.862Z,1.00
2023-03-26T04:47:46.875Z,2.00
2023-03-26T04:48:46.828Z,1.00
2023-03-26T04:49:46.787Z,2.00
2023-03-26T04:50:46.802Z,4.00
2023-03-26T04:51:46.791Z,6.00
2023-03-26T04:52:46.766Z,2.00
2023-03-26T04:53:46.765Z,5.00
2023-03-26T04:54:46.733Z,6.00
2023-03-26T04:55:46.733Z,4.00
2023-03-26T04:56:46.809Z,6.00
2023-03-26T04:57:46.706Z,6.00
2023-03-26T04:58:46.706Z,5.00
2023-03-26T04:59:46.726Z,4.00
2023-03-26T05:00:46.710Z,8.00
2023-03-26T05:01:46.720Z,8.00
2023-03-26T05:02:46.690Z,4.00
2023-03-26T05:03:46.689Z,6.00
2023-03-26T05:04:46.630Z,9.00
2023-03-26T05:05:46.620Z,13.00
2023-03-26T05:06:46.631Z,25.00
2023-03-26T05:07:46.609Z,38.00
2023-03-26T05:08:46.607Z,31.00
2023-03-26T05:09:46.577Z,44.00
2023-03-26T05:10:46.590Z,63.00
2023-03-26T05:11:46.587Z,70.00
2023-03-26T05:12:46.537Z,85.00
2023-03-26T05:13:46.548Z,103.00
2023-03-26T05:14:46.522Z,56.00
2023-03-26T05:15:46.513Z,101.00
2023-03-26T05:16:46.523Z,184.00
2023-03-26T05:17:46.659Z,186.00
2023-03-26T05:18:46.502Z,224.00
2023-03-26T05:19:46.512Z,169.00
2023-03-26T05:20:46.535Z,122.00
2023-03-26T05:21:46.450Z,174.00
2023-03-26T05:22:46.445Z,294.00
2023-03-26T05:23:46.455Z,327.00
2023-03-26T05:24:46.409Z,319.00
2023-03-26T05:25:46.443Z,354.00
2023-03-26T05:26:46.405Z,416.00
2023-03-26T05:27:46.403Z,429.00
2023-03-26T05:28:46.398Z,420.00
2023-03-26T05:29:46.366Z,420.00
2023-03-26T05:30:46.355Z,434.00
2023-03-26T05:31:46.343Z,464.00
2023-03-26T05:32:46.387Z,463.00
2023-03-26T05:33:46.512Z,581.00
2023-03-26T05:34:46.308Z,635.00
2023-03-26T05:35:46.328Z,638.00
2023-03-26T05:36:46.399Z,683.00
2023-03-26T05:37:46.304Z,672.00
2023-03-26T05:38:46.283Z,661.00
2023-03-26T05:39:46.279Z,736.00
2023-03-26T05:40:46.264Z,751.00
2023-03-26T05:41:46.245Z,608.00
2023-03-26T05:42:46.281Z,540.00
2023-03-26T05:43:46.275Z,535.00
2023-03-26T05:44:46.223Z,556.00
2023-03-26T05:45:46.290Z,650.00
2023-03-26T05:46:46.209Z,611.00
2023-03-26T05:47:46.234Z,476.00
2023-03-26T05:48:46.196Z,491.00
2023-03-26T05:49:46.149Z,481.00
2023-03-26T05:50:46.157Z,494.00
2023-03-26T05:51:46.156Z,652.00
2023-03-26T05:52:46.141Z,808.00
2023-03-26T05:53:46.151Z,943.00
2023-03-26T05:54:46.113Z,958.00
2023-03-26T05:55:46.099Z,1005.00
2023-03-26T05:56:46.130Z,1023.00
2023-03-26T05:57:46.074Z,834.00
2023-03-26T05:58:46.075Z,860.00
2023-03-26T05:59:46.077Z,1022.00
2023-03-26T06:00:46.030Z,1151.00
2023-03-26T06:01:46.021Z,1095.00
2023-03-26T06:02:46.101Z,1072.00
2023-03-26T06:03:46.185Z,1019.00
2023-03-26T06:04:46.211Z,1077.00
2023-03-26T06:05:45.990Z,1452.00
2023-03-26T06:06:45.968Z,1220.00
2023-03-26T06:07:45.963Z,1157.00
2023-03-26T06:08:45.990Z,1338.00
2023-03-26T06:09:45.940Z,1412.00
2023-03-26T06:10:45.930Z,1512.00
2023-03-26T06:11:45.941Z,1490.00
2023-03-26T06:12:45.919Z,1467.00
2023-03-26T06:13:45.913Z,1395.00
2023-03-26T06:14:45.901Z,1571.00
2023-03-26T06:15:45.998Z,1676.00
2023-03-26T06:16:45.866Z,1819.00
2023-03-26T06:17:45.911Z,2322.00
2023-03-26T06:18:45.861Z,2394.00
2023-03-26T06:19:45.852Z,2050.00
2023-03-26T06:20:45.845Z,2388.00
2023-03-26T06:21:45.831Z,2487.00
2023-03-26T06:22:45.805Z,2353.00
2023-03-26T06:23:45.798Z,2680.00
2023-03-26T06:24:45.788Z,2586.00
2023-03-26T06:25:45.792Z,2520.00
2023-03-26T06:26:45.819Z,2435.00
2023-03-26T06:27:45.750Z,2973.00
2023-03-26T06:28:45.763Z,3350.00
2023-03-26T06:29:45.773Z,3320.00
2023-03-26T06:30:45.728Z,2905.00
2023-03-26T06:31:45.767Z,2814.00
2023-03-26T06:32:45.712Z,2167.00
2023-03-26T06:33:45.701Z,1783.00
2023-03-26T06:34:45.725Z,1995.00
2023-03-26T06:35:45.835Z,2049.00
2023-03-26T06:36:45.658Z,1989.00
2023-03-26T06:37:45.656Z,1903.00
2023-03-26T06:38:45.685Z,2142.00
2023-03-26T06:39:45.643Z,2560.00
2023-03-26T06:40:45.619Z,2426.00
2023-03-26T06:41:45.618Z,1833.00
2023-03-26T06:43:06.699Z,1661.00
2023-03-26T06:43:45.619Z,2206.00
2023-03-26T06:44:45.591Z,3091.00
2023-03-26T06:45:45.573Z,3760.00
2023-03-26T06:46:45.611Z,3917.00
2023-03-26T06:47:45.560Z,3577.00
2023-03-26T06:48:45.563Z,2816.00
2023-03-26T06:49:45.569Z,2371.00
2023-03-26T06:50:45.530Z,2200.00
2023-03-26T06:51:45.535Z,3144.00
2023-03-26T06:52:45.497Z,3332.00
2023-03-26T06:53:45.503Z,2956.00
2023-03-26T06:54:45.509Z,2224.00
2023-03-26T06:55:45.470Z,1602.00
2023-03-26T06:56:45.485Z,889.00
2023-03-26T06:57:45.450Z,900.00
2023-03-26T06:58:45.437Z,1684.00
2023-03-26T06:59:45.453Z,1797.00
2023-03-26T07:00:45.462Z,2096.00
2023-03-26T07:01:46.776Z,2166.00
2023-03-26T07:02:45.525Z,1941.00
2023-03-26T07:03:45.427Z,1926.00
2023-03-26T07:04:45.408Z,2036.00
2023-03-26T07:05:45.363Z,2306.00
2023-03-26T07:06:45.352Z,2250.00
2023-03-26T07:07:46.503Z,2029.00
2023-03-26T07:08:45.377Z,1886.00
2023-03-26T07:09:45.323Z,2370.00
2023-03-26T07:10:45.302Z,3046.00
2023-03-26T07:11:45.328Z,3390.00
2023-03-26T07:12:45.297Z,3277.00
2023-03-26T07:13:45.309Z,2971.00
2023-03-26T07:14:45.320Z,3042.00
2023-03-26T07:15:45.288Z,4568.00
2023-03-26T07:16:45.314Z,5878.00
2023-03-26T07:17:45.263Z,6237.00
2023-03-26T07:18:45.254Z,5431.00
2023-03-26T07:19:45.253Z,4577.00
2023-03-26T07:20:45.224Z,4244.00
2023-03-26T07:21:45.205Z,4311.00
2023-03-26T07:22:45.187Z,5072.00
2023-03-26T07:23:45.189Z,5829.00
2023-03-26T07:24:45.185Z,6647.00
2023-03-26T07:25:45.191Z,7215.00
2023-03-26T07:26:45.162Z,7473.00
2023-03-26T07:27:45.135Z,7400.00
2023-03-26T07:29:04.770Z,7201.00
2023-03-26T07:29:45.138Z,6978.00
2023-03-26T07:30:45.102Z,7450.00
2023-03-26T07:31:45.115Z,7890.00
2023-03-26T07:32:45.138Z,8409.00
2023-03-26T07:33:45.083Z,8943.00
2023-03-26T07:34:45.070Z,9554.00
2023-03-26T07:35:45.080Z,10139.00
2023-03-26T07:36:45.078Z,10407.00
2023-03-26T07:37:45.056Z,10602.00
2023-03-26T07:38:45.033Z,10364.00
2023-03-26T07:39:45.034Z,9799.00
2023-03-26T07:40:45.022Z,9392.00
2023-03-26T07:41:44.990Z,8961.00
2023-03-26T07:42:44.992Z,8375.00
2023-03-26T07:43:44.995Z,8109.00
2023-03-26T07:44:44.986Z,7935.00
2023-03-26T07:45:45.060Z,7891.00
2023-03-26T07:46:44.990Z,8094.00
2023-03-26T07:47:44.958Z,8341.00
2023-03-26T07:48:44.931Z,8440.00
2023-03-26T07:49:44.951Z,8792.00
2023-03-26T07:50:44.902Z,9588.00
2023-03-26T07:51:44.878Z,9255.00
2023-03-26T07:52:44.887Z,8505.00
2023-03-26T07:53:44.872Z,8281.00
2023-03-26T07:54:44.890Z,8332.00
2023-03-26T07:55:44.880Z,8853.00
2023-03-26T07:56:44.869Z,9128.00
2023-03-26T07:57:44.850Z,9203.00
2023-03-26T07:58:44.827Z,8874.00
2023-03-26T07:59:44.824Z,8080.00
2023-03-26T08:00:44.834Z,7462.00
2023-03-26T08:01:44.824Z,7062.00
2023-03-26T08:02:44.898Z,6335.00
2023-03-26T08:03:44.820Z,6005.00
2023-03-26T08:04:44.859Z,5956.00
2023-03-26T08:05:44.751Z,5969.00
2023-03-26T08:06:44.731Z,6082.00
2023-03-26T08:07:44.745Z,5963.00
2023-03-26T08:08:44.698Z,5089.00
2023-03-26T08:09:44.716Z,4694.00
2023-03-26T08:10:44.721Z,4844.00
2023-03-26T08:11:44.685Z,4986.00
2023-03-26T08:12:44.672Z,5128.00
2023-03-26T08:13:44.694Z,5309.00
2023-03-26T08:14:44.634Z,5456.00
2023-03-26T08:15:44.687Z,5750.00
2023-03-26T08:16:44.649Z,5850.00
2023-03-26T08:17:44.669Z,6070.00
2023-03-26T08:18:44.611Z,6393.00
2023-03-26T08:19:44.652Z,6562.00
2023-03-26T08:20:44.565Z,6421.00
2023-03-26T08:21:44.571Z,6167.00
2023-03-26T08:22:44.584Z,6114.00
2023-03-26T08:23:50.833Z,6333.00
2023-03-26T08:24:44.565Z,6596.00
2023-03-26T08:25:44.554Z,6823.00
2023-03-26T08:26:44.613Z,6196.00
2023-03-26T08:27:44.531Z,5433.00
2023-03-26T08:28:44.517Z,4638.00
2023-03-26T08:29:44.508Z,4289.00
2023-03-26T08:30:44.525Z,4267.00
2023-03-26T08:31:44.496Z,4810.00
2023-03-26T08:32:44.473Z,5809.00
2023-03-26T08:33:44.442Z,6516.00
2023-03-26T08:34:44.473Z,6400.00
2023-03-26T08:35:44.502Z,6440.00
2023-03-26T08:36:44.403Z,6950.00
2023-03-26T08:37:44.421Z,7058.00
2023-03-26T08:38:46.721Z,6810.00
2023-03-26T08:39:44.393Z,6673.00
2023-03-26T08:40:44.406Z,6060.00
2023-03-26T08:41:44.366Z,6614.00
2023-03-26T08:42:44.360Z,7061.00
2023-03-26T08:43:44.352Z,7405.00
2023-03-26T08:44:44.387Z,8070.00
2023-03-26T08:45:44.323Z,9249.00
2023-03-26T08:46:44.331Z,10436.00
2023-03-26T08:47:44.329Z,11694.00
2023-03-26T08:48:44.287Z,12878.00
2023-03-26T08:49:44.330Z,14053.00
2023-03-26T08:50:44.270Z,15116.00
2023-03-26T08:51:44.255Z,15814.00
2023-03-26T08:52:44.246Z,16395.00
2023-03-26T08:53:44.245Z,16952.00
2023-03-26T08:54:44.262Z,18514.00
2023-03-26T08:55:44.209Z,18425.00
2023-03-26T08:56:44.241Z,17893.00
2023-03-26T08:57:44.193Z,17401.00
2023-03-26T08:58:44.311Z,17237.00
2023-03-26T08:59:44.216Z,17210.00
2023-03-26T09:00:44.154Z,17233.00
2023-03-26T09:01:44.171Z,16989.00
2023-03-26T09:02:44.164Z,16551.00
2023-03-26T09:03:44.165Z,15724.00
2023-03-26T09:04:44.156Z,14850.00
2023-03-26T09:05:44.137Z,13999.00
2023-03-26T09:06:44.128Z,12758.00
2023-03-26T09:07:44.100Z,11791.00
2023-03-26T09:08:54.116Z,11366.00
2023-03-26T09:09:44.080Z,11836.00
2023-03-26T09:10:44.055Z,12196.00
2023-03-26T09:11:44.082Z,12362.00
2023-03-26T09:12:44.070Z,12565.00
2023-03-26T09:13:44.015Z,12654.00
2023-03-26T09:14:44.020Z,12528.00
2023-03-26T09:15:44.071Z,12157.00
2023-03-26T09:16:44.040Z,11752.00
2023-03-26T09:17:44.005Z,11420.00
2023-03-26T09:18:43.964Z,11289.00
2023-03-26T09:19:43.961Z,11309.00
2023-03-26T09:20:43.941Z,11357.00
2023-03-26T09:21:43.941Z,11442.00
2023-03-26T09:22:43.931Z,11521.00
2023-03-26T09:23:43.930Z,11789.00
2023-03-26T09:24:43.922Z,12031.00
2023-03-26T09:25:43.928Z,12417.00
2023-03-26T09:26:43.875Z,12896.00
2023-03-26T09:27:43.880Z,13401.00
2023-03-26T09:28:43.859Z,13706.00
2023-03-26T09:29:43.844Z,14206.00
2023-03-26T09:30:43.866Z,14489.00
2023-03-26T09:31:43.866Z,14317.00
2023-03-26T09:32:43.819Z,14132.00
2023-03-26T09:33:43.829Z,13850.00
2023-03-26T09:34:43.806Z,13446.00
2023-03-26T09:35:43.849Z,12985.00
2023-03-26T09:36:43.793Z,12374.00
2023-03-26T09:37:57.039Z,12229.00
2023-03-26T09:38:43.772Z,12695.00
2023-03-26T09:39:43.749Z,13003.00
2023-03-26T09:40:43.747Z,13409.00
2023-03-26T09:41:43.714Z,14191.00
2023-03-26T09:42:43.758Z,15158.00
2023-03-26T09:43:43.806Z,15624.00
2023-03-26T09:44:43.735Z,15420.00
2023-03-26T09:45:43.772Z,14621.00
2023-03-26T09:46:45.596Z,13911.00
2023-03-26T09:47:43.720Z,14117.00
2023-03-26T09:48:43.654Z,14295.00
2023-03-26T09:49:43.630Z,14569.00
2023-03-26T09:50:43.640Z,14548.00
2023-03-26T09:51:43.619Z,14455.00
2023-03-26T09:52:43.600Z,14331.00
2023-03-26T09:53:43.612Z,14169.00
2023-03-26T09:54:43.594Z,13877.00
2023-03-26T09:55:43.611Z,13664.00
2023-03-26T09:56:43.593Z,13414.00
2023-03-26T09:57:43.604Z,13338.00
2023-03-26T09:58:43.552Z,13449.00
2023-03-26T09:59:43.523Z,13559.00
2023-03-26T10:00:43.578Z,13696.00
2023-03-26T10:01:43.571Z,13796.00
2023-03-26T10:02:46.276Z,13796.00
2023-03-26T10:03:43.505Z,13635.00
2023-03-26T10:04:43.573Z,13472.00
2023-03-26T10:05:43.476Z,13377.00
2023-03-26T10:06:43.459Z,13351.00
2023-03-26T10:07:43.436Z,13439.00
2023-03-26T10:08:43.466Z,13637.00
2023-03-26T10:09:43.434Z,13680.00
2023-03-26T10:10:43.446Z,13755.00
2023-03-26T10:11:43.406Z,13782.00
2023-03-26T10:12:43.405Z,13855.00
2023-03-26T10:13:43.372Z,13895.00
2023-03-26T10:14:43.367Z,13906.00
2023-03-26T10:15:43.391Z,14045.00
2023-03-26T10:16:43.395Z,14112.00
2023-03-26T10:17:43.363Z,14301.00
2023-03-26T10:18:43.337Z,14401.00
2023-03-26T10:19:43.318Z,14402.00
2023-03-26T10:20:43.320Z,14316.00
2023-03-26T10:21:43.296Z,14251.00
2023-03-26T10:22:43.285Z,14297.00
2023-03-26T10:23:43.277Z,14194.00
2023-03-26T10:24:43.267Z,14195.00
2023-03-26T10:25:43.272Z,14168.00
2023-03-26T10:27:08.666Z,14099.00
2023-03-26T10:27:43.244Z,14010.00
2023-03-26T10:28:43.217Z,13909.00
2023-03-26T10:29:43.207Z,13901.00
2023-03-26T10:30:43.272Z,14023.00
2023-03-26T10:31:43.182Z,14036.00
2023-03-26T10:32:43.232Z,13661.00
2023-03-26T10:33:43.174Z,13133.00
2023-03-26T10:34:43.156Z,12639.00
2023-03-26T10:35:43.172Z,12262.00
2023-03-26T10:36:43.163Z,11974.00
2023-03-26T10:37:43.126Z,11658.00
2023-03-26T10:38:43.113Z,11281.00
2023-03-26T10:39:43.601Z,11093.00
2023-03-26T10:40:49.754Z,10986.00
2023-03-26T10:41:43.098Z,10977.00
2023-03-26T10:42:43.088Z,10909.00
2023-03-26T10:43:43.063Z,10915.00
2023-03-26T10:44:43.086Z,10821.00
2023-03-26T10:45:43.058Z,10651.00
2023-03-26T10:46:43.082Z,10458.00
2023-03-26T10:47:43.082Z,10250.00
2023-03-26T10:48:43.016Z,9828.00
2023-03-26T10:49:43.023Z,9468.00
2023-03-26T10:50:43.015Z,9090.00
2023-03-26T10:51:42.987Z,8855.00
2023-03-26T10:52:42.987Z,8663.00
2023-03-26T10:53:42.950Z,8430.00
2023-03-26T10:54:42.975Z,8158.00
2023-03-26T10:55:42.950Z,7840.00
2023-03-26T10:56:42.946Z,7492.00
2023-03-26T10:57:42.918Z,7156.00
2023-03-26T10:58:49.721Z,6889.00
2023-03-26T10:59:42.901Z,6668.00
2023-03-26T11:00:42.972Z,6333.00
2023-03-26T11:01:42.901Z,6173.00
2023-03-26T11:02:42.919Z,5996.00
2023-03-26T11:03:42.849Z,5834.00
2023-03-26T11:04:42.846Z,5678.00
2023-03-26T11:05:42.928Z,5584.00
2023-03-26T11:06:42.835Z,5532.00
2023-03-26T11:07:42.837Z,5666.00
2023-03-26T11:08:42.811Z,5813.00
2023-03-26T11:09:42.779Z,5911.00
2023-03-26T11:10:42.792Z,6110.00
2023-03-26T11:11:42.767Z,6268.00
2023-03-26T11:12:42.757Z,6484.00
2023-03-26T11:13:42.745Z,6745.00
2023-03-26T11:14:42.738Z,6953.00
2023-03-26T11:15:42.788Z,7146.00
2023-03-26T11:16:42.713Z,7355.00
2023-03-26T11:17:42.767Z,7389.00
2023-03-26T11:18:42.692Z,6990.00
2023-03-26T11:19:42.679Z,6670.00
2023-03-26T11:20:42.688Z,6404.00
2023-03-26T11:21:42.657Z,6228.00
2023-03-26T11:22:42.651Z,6205.00
2023-03-26T11:23:42.641Z,6287.00
2023-03-26T11:24:42.628Z,6459.00
2023-03-26T11:25:42.639Z,6682.00
2023-03-26T11:26:42.620Z,7036.00
2023-03-26T11:27:42.594Z,7213.00
2023-03-26T11:28:42.611Z,7396.00
2023-03-26T11:29:42.633Z,7431.00
2023-03-26T11:30:42.572Z,7437.00
2023-03-26T11:31:42.632Z,7294.00
2023-03-26T11:32:42.606Z,7221.00
2023-03-26T11:33:45.587Z,7118.00
2023-03-26T11:34:42.595Z,7025.00
2023-03-26T11:35:42.622Z,6970.00
2023-03-26T11:36:42.534Z,7016.00
2023-03-26T11:37:42.520Z,6980.00
2023-03-26T11:38:42.499Z,7102.00
2023-03-26T11:39:42.524Z,6890.00
2023-03-26T11:40:42.548Z,6906.00
2023-03-26T11:41:42.471Z,6727.00
2023-03-26T11:42:42.502Z,6459.00
2023-03-26T11:43:42.443Z,6073.00
2023-03-26T11:44:42.478Z,5656.00
2023-03-26T11:45:42.490Z,5409.00
2023-03-26T11:46:42.437Z,5273.00
2023-03-26T11:47:42.449Z,5205.00
2023-03-26T11:48:42.390Z,5198.00
2023-03-26T11:49:42.386Z,5347.00
2023-03-26T11:50:42.408Z,5522.00
2023-03-26T11:51:42.358Z,5846.00
2023-03-26T11:52:42.374Z,5962.00
2023-03-26T11:53:42.328Z,6095.00
2023-03-26T11:54:42.354Z,6489.00
2023-03-26T11:55:42.331Z,6930.00
2023-03-26T11:57:05.478Z,7335.00
2023-03-26T11:57:42.298Z,7601.00
2023-03-26T11:58:42.297Z,7704.00
2023-03-26T11:59:55.437Z,7804.00
2023-03-26T12:00:42.335Z,7768.00
2023-03-26T12:01:42.264Z,7583.00
2023-03-26T12:02:42.301Z,7454.00
2023-03-26T12:03:42.241Z,7365.00
2023-03-26T12:04:42.252Z,7413.00
2023-03-26T12:05:42.215Z,7441.00
2023-03-26T12:06:42.218Z,7503.00
2023-03-26T12:07:42.199Z,7550.00
2023-03-26T12:08:42.165Z,7548.00
2023-03-26T12:09:42.160Z,7421.00
2023-03-26T12:10:42.161Z,7147.00
2023-03-26T12:11:42.193Z,7086.00
2023-03-26T12:12:42.155Z,6814.00
2023-03-26T12:13:42.151Z,6772.00
2023-03-26T12:14:42.125Z,6768.00
2023-03-26T12:15:42.103Z,6672.00
2023-03-26T12:16:42.138Z,6735.00
2023-03-26T12:17:42.119Z,6818.00
2023-03-26T12:18:42.075Z,6909.00
2023-03-26T12:19:42.056Z,6872.00
2023-03-26T12:20:42.065Z,6791.00
2023-03-26T12:21:42.086Z,6761.00
2023-03-26T12:22:43.639Z,6606.00
2023-03-26T12:23:42.001Z,6562.00
2023-03-26T12:24:42.011Z,6581.00
2023-03-26T12:25:42.004Z,6562.00
2023-03-26T12:26:41.996Z,6649.00
2023-03-26T12:27:41.962Z,6710.00
2023-03-26T12:28:43.014Z,6799.00
2023-03-26T12:29:41.958Z,7030.00
2023-03-26T12:30:41.938Z,7159.00
2023-03-26T12:31:42.039Z,7209.00